Terminal Aerodrome Forecast
Issued by NWS

Home | Current Version | Previous Version | Text Only | Print | Product List | Glossary Off
Versions: 1 2 3 4 5 6 7 8 9 10 11 12 13 14 15 16

354
FTUS43 KICT 211731
TAFHUT
TAF
KHUT 211731Z 2118/2218 13006KT P6SM SCT200
     FM212100 12007KT P6SM BKN110
     FM220000 08006KT P6SM BKN060
     FM220300 03008KT P6SM VCSH OVC035
     FM220600 02009KT P6SM VCSH OVC020
     FM221000 36013G20KT P6SM BKN050=

USA.gov is the U.S. government's official web portal to all federal, state and local government web resources and services.